Tiempo atmosférico en la estación meteorológica de Andújar, Jaén (193 m.)



Fecha
DESCASC
Temp. máxima en grados centígrados (hora)
DESCASC
Temp. mínima en grados centígrados (hora)
DESCASC
Temp. media en grados centígrados
DESCASC
Racha de viento máxima en m/sg (hora)
DESCASC
Velocidad máxima media en intervalos de 10 minutos(hora)
DESCASC
Precipitaciones diarias en mm
DESCASC
Precipitaciones de 00:00 a 06:00 en mm
DESCASC
Precipitaciones de 06:00 a 12:00 en mm
DESCASC
Precipitaciones de 12:00 a 18:00 en mm
DESCASC
Precipitaciones de 18:00 a 24:00 en mm
DESCASC
05-04-2020 23.6 (16:20) 6.5 (08:00) 15.1 8.61 (18:20) 5.83 (18:40) 0 0 0 0 0
04-04-2020 22.2 (17:00) 6.3 (06:30) 14.3 7.22 (11:50) 3.89 (10:10) 0 0 0 0 0
03-04-2020 22 (18:10) 5.8 (07:40) 13.9 5.28 (16:40) 2.22 (11:40) 0.1 0 0.1 0 0
02-04-2020 14.8 (17:30) 6.7 (00:00) 10.8 5.56 (16:40) 3.89 (16:40) 12.6 1.6 6.9 4.1 0
01-04-2020 18 (15:10) 8.6 (00:00) 13.3 9.44 (19:40) 5.28 (20:10) 0.1 0.1 0 0 0
31-03-2020 19.7 (14:10) 10.2 (00:00) 15 12.5 (15:30) 7.78 (15:30) 32.7 16.6 1.1 8.7 6.3
30-03-2020 19.9 (16:20) 8.6 (00:00) 14.3 7.78 (20:40) 5.28 (19:10) 4 0 0 0 4
29-03-2020 21.7 (17:00) 7.4 (00:00) 14.6 5.28 (23:20) 3.61 (23:20) 0 0 0 0 0
28-03-2020 21 (16:20) 3.6 (00:00) 12.3 5.28 (09:40) 3.06 (09:40) 0 0 0 0 0
27-03-2020 19 (16:40) 7.6 (00:00) 13.3 18.61 (16:10) 7.78 (15:30) 0 0 0 0 0
26-03-2020 22.1 (16:40) 11.5 (00:00) 16.8 10.83 (16:50) 6.39 (17:50) 0 0 0 0 0
25-03-2020 21.5 (15:50) 10.3 (00:00) 15.9 7.22 (04:50) 4.17 (18:30) 0 0 0 0 0
24-03-2020 21.3 (14:50) 8.2 (00:00) 14.7 9.17 (12:30) 4.44 (13:20) 0 0 0 0 0
23-03-2020 19.5 (16:20) 6.2 (00:00) 12.8 10 (17:00) 5 (17:00) 6.8 0 0 3.4 3.4
22-03-2020 15.4 (13:40) 4.5 (06:30) 9.9 6.39 (14:20) 3.61 (14:20) 1 0 0 1 0
21-03-2020 17.6 (16:10) 7.3 (00:00) 12.5 11.11 (04:50) 7.22 (04:50) 14.8 7.5 2.5 3.5 1.3
20-03-2020 22.2 (16:00) 7.5 (00:00) 14.9 5 (23:30) 3.06 (23:30) 0 0 0 0 0
19-03-2020 21 (16:40) 7.9 (00:00) 14.5 9.17 (14:00) 4.17 (13:20) 0 0 0 0 0
18-03-2020 23 (16:40) 13 (00:00) 18 13.61 (12:00) 7.22 (12:00) 0 0 0 0 0
17-03-2020 20.4 (15:40) 6.3 (00:00) 13.3 10.56 (16:40) 5.28 (16:40) 0.5 0.5 0 0 0
16-03-2020 15.9 (00:20) 6.5 (00:00) 11.2 11.39 (01:20) 7.78 (04:40) 7 6.5 0 0 0.5
15-03-2020 22.7 (17:10) 7.9 (00:00) 15.3 10 (23:40) 4.44 (17:00) 2.8 0 0 0 2.8
14-03-2020 24.6 (16:50) 10.8 (00:00) 17.7 5.56 (16:10) 3.61 (20:30) 0 0 0 0 0
13-03-2020 24.6 (15:20) 6.1 (08:00) 15.4 8.06 (15:30) 5.28 (15:00) 0 0 0 0 0
12-03-2020 28.7 (15:40) 7.6 (00:00) 18.2 7.78 (17:30) 5.83 (18:40) 0 0 0 0 0
11-03-2020 30.5 (16:40) 6.1 (00:00) 18.3 5.28 (17:10) 4.17 (17:10) 0 0 0 0 0

Gráficas

Temp. máximas Temp. mínimas Temp. medias Precipitaciones Rachas de viento máximas Velocidades máximas media en intervalos de 10 minutos

Datos horarios

Fecha y hora oficial Temperatura (ºC) Velocidad del viento (km/h) Dirección del viento Racha (km/h) Dirección de racha Precipitación (mm) Presión (hPa) Tendencia (hPa) Humedad (%)
2020-04-09 23:00:00 13.2 5 Oeste 10 Oeste 2.2 997.1 1.3 98
2020-04-09 22:00:00 13.4 3 Oeste 9 Noroeste 1.7 996.6 1.8 98
2020-04-09 21:00:00 13.2 6 Noroeste 13 Noroeste 1.1 995.9 1.9 96
2020-04-09 20:00:00 14.1 7 Oeste 29 Oeste 0.5 995.8 2.3 92
2020-04-09 19:00:00 16.6 20 Oeste 32 Oeste 0 994.8 1.1 63
2020-04-09 18:00:00 19 21 Oeste 31 Oeste 0 994 0 49
2020-04-09 17:00:00 20.7 19 Oeste 26 Oeste 0 993.5 -0.7 50
2020-04-09 16:00:00 21.8 15 Oeste 29 Oeste 0 993.7 -1 48
2020-04-09 15:00:00 21.6 14 Oeste 27 Oeste 0 994 -0.7 51
2020-04-09 14:00:00 21.4 11 Noroeste 24 Noroeste 0 994.2 -0.4 55
2020-04-09 13:00:00 20.6 0 Calma 10 Este 0 994.7 0.3 56
2020-04-09 12:00:00 19.6 6 Este 13 Sudeste 0 994.7 0.5 63
2020-04-09 11:00:00 18.2 5 Este 11 Sudeste 0 994.6 0.5 68
2020-04-09 10:00:00 16.7 2 Este 9 Sudeste 0 994.4 0.5 73
2020-04-09 09:00:00 15.4 0 Calma 6 Sudoeste 0 994.2 0.5 84
2020-04-09 08:00:00 14.6 2 Sudoeste 13 Sudoeste 0 994.1 0.1 84
2020-04-09 07:00:00 15.2 11 Sudoeste 17 Sudoeste 0 993.9 -0.1 79
2020-04-09 06:00:00 15.4 5 Oeste 14 Oeste 0 993.7 -0.9 77
2020-04-09 05:00:00 15.7 9 Noroeste 13 Oeste 0 994 -1 75
2020-04-09 04:00:00 15.9 4 Oeste 7 Oeste 0 994 -1 74
2020-04-09 03:00:00 16.3 0 Calma 13 Noroeste 0 994.6 -0.6 70
2020-04-09 02:00:00 17.2 8 Oeste 19 Oeste 0 995 -0.1 64
2020-04-09 01:00:00 17.9 12 Sudoeste 15 Oeste 0 995 0.6 63
2020-04-09 00:00:00 18.8 10 Oeste 19 Oeste 0 995.2 1.5 60
2020-04-08 23:00:00 19.7 10 Oeste 21 Oeste 0 995.1 1.9 57
2020-04-08 22:00:00 19.9 15 Oeste 22 Oeste 0 994.4 1.2 56
2020-04-08 21:00:00 20.8 13 Oeste 25 Oeste 0 993.7 0.6 53
2020-04-08 20:00:00 22.6 18 Oeste 28 Oeste 0 993.2 -0.4 46
2020-04-08 19:00:00 24.9 9 Oeste 18 Oeste 0 993.2 -1 36
2020-04-08 18:00:00 25.3 5 Norte 15 Noroeste 0 993.1 -2.1 37
2020-04-08 17:00:00 26.1 7 Oeste 15 Oeste 0 993.6 -2.4 35
2020-04-08 16:00:00 25.2 0 Calma 13 Noroeste 0 994.2 -2.6 38
2020-04-08 15:00:00 23.9 5 Sudoeste 14 Este 0 995.2 -2.2 40
2020-04-08 14:00:00 22 5 Este 17 Este 0 996 -1.6 51
2020-04-08 13:00:00 21.4 5 Este 20 Este 0 996.8 -1.1 55
2020-04-08 12:00:00 19.9 6 Sudeste 18 Este 0 997.4 -0.6 59
2020-04-08 11:00:00 17.6 9 Este 15 Este 0 997.6 -0.2 72
2020-04-08 10:00:00 15 6 Este 11 Sudeste 0 997.9 0.3 85
2020-04-08 09:00:00 12.8 0 Calma 5 Este 0 998 0.3 99
2020-04-08 08:00:00 11.1 0 Calma 6 Sudeste 0 997.8 -0.1 99
2020-04-08 07:00:00 11.5 0 Calma 6 Noroeste 0 997.6 -0.4 98
2020-04-08 06:00:00 12.8 7 Noroeste 17 Sudoeste 0 997.7 -0.6 91
2020-04-08 05:00:00 13.9 12 Sudoeste 26 Oeste 0 997.9 -0.4 88
2020-04-08 04:00:00 14.5 8 Oeste 12 Oeste 0 998 0 88
2020-04-08 03:00:00 13.3 0 Calma 8 Noroeste 0 998.3 0.5 96
2020-04-08 02:00:00 14.5 6 Noroeste 9 Noroeste 0 998.3 0.7 88
2020-04-08 01:00:00 13.3 0 Calma 5 Este 0 998 0.8 94
2020-04-08 00:00:00 14.3 0 Calma 4 Oeste 0 997.8 1.4 87
2020-04-07 23:00:00 15.7 0 Calma 5 Oeste 0 997.6 1.7 77
2020-04-07 22:00:00 18.2 4 Oeste 13 Oeste 0 997.2 1.2 59
2020-04-07 21:00:00 19.9 9 Sudoeste 13 Oeste 0 996.4 0.4 50
2020-04-07 20:00:00 22.6 11 Oeste 21 Oeste 0 995.9 -0.4 42
2020-04-07 19:00:00 23.8 12 Oeste 23 Oeste 0 996 -0.9 41
2020-04-07 18:00:00 24.1 15 Oeste 25 Noroeste 0 996 -1.6 41
2020-04-07 17:00:00 23.9 12 Oeste 26 Sudoeste 0 996.3 -1.9 43
2020-04-07 16:00:00 22.5 13 Noroeste 25 Noroeste 0 996.9 -1.8 46
2020-04-07 15:00:00 22.5 8 Noroeste 17 Noroeste 0 997.6 -1.4 53
2020-04-07 14:00:00 21.4 7 Oeste 14 Oeste 0 998.2 -0.8 56
2020-04-07 13:00:00 20 0 Calma 8 Este 0 998.7 -0.1 65
2020-04-07 12:00:00 17.6 0 Calma 12 Oeste 0.1 999 0.5 80
2020-04-07 11:00:00 16.7 0 Calma 10 Noroeste 0 999 1 91
2020-04-07 10:00:00 15.5 6 Oeste 10 Oeste 0 998.8 0.9 99
2020-04-07 09:00:00 15 0 Calma -- -- 0 998.5 0.7 99
2020-04-07 08:00:00 14.5 0 Calma 2 Oeste 0 998 0.3 99
2020-04-07 07:00:00 14.3 0 Calma -- -- 0 997.9 0.1 99
2020-04-07 06:00:00 14 0 Calma 5 Oeste 0 997.8 -0.1 99
2020-04-07 05:00:00 13.5 5 Oeste 7 Noroeste 0 997.7 -0.2 99
2020-04-07 04:00:00 14.4 0 Calma 8 Noroeste 0.2 997.8 -0.1 99
2020-04-07 03:00:00 14.3 0 Calma -- -- 0 997.9 -0.2 98
2020-04-07 02:00:00 14.3 0 Calma 4 Sudeste 0 997.9 0.1 97
2020-04-07 01:00:00 15.4 0 Calma 3 Oeste 0 997.9 0.2 95
2020-04-07 00:00:00 15.9 0 Calma 6 Oeste 0 998.1 1.3 92
2020-04-06 23:00:00 15.4 3 Sur 10 Oeste 0 997.8 1.5 92
2020-04-06 22:00:00 16.7 6 Oeste 12 Oeste 0 997.7 1.6 84
2020-04-06 21:00:00 17.4 9 Oeste 17 Oeste 0 996.8 0.6 78
2020-04-06 20:00:00 18.7 12 Oeste 19 Noroeste 0 996.3 -0.1 70
2020-04-06 19:00:00 19.5 17 Noroeste 23 Noroeste 0 996.1 -0.7 63
2020-04-06 18:00:00 20.4 14 Oeste 24 Oeste 0 996.2 -0.8 58
2020-04-06 17:00:00 21.3 13 Oeste 24 Noroeste 0 996.4 -0.9 55
2020-04-06 16:00:00 21.1 14 Noroeste 23 Noroeste 0 996.8 -0.8 56
2020-04-06 15:00:00 19 10 Noroeste 22 Oeste 0 997 -0.4 59
2020-04-06 14:00:00 19.5 13 Oeste 23 Oeste 0 997.3 0.1 55
2020-04-06 13:00:00 18.3 7 Noroeste 15 Noroeste 0 997.6 0.9 57
2020-04-06 12:00:00 17.4 6 Noroeste 12 Oeste 0 997.4 1.5 66
2020-04-06 11:00:00 16.7 3 Oeste 7 Oeste 0 997.2 1.8 67
2020-04-06 10:00:00 15.7 3 Este 6 Este 0 996.7 1.8 72
2020-04-06 09:00:00 13.6 0 Calma 4 Este 0 995.9 1.2 91
2020-04-06 08:00:00 13.3 0 Calma 5 Sudeste 0 995.4 0.8 90
2020-04-06 07:00:00 13.8 0 Calma 6 Sudoeste 0 994.9 0.1 78
2020-04-06 06:00:00 13.9 3 Sudoeste 6 Sudoeste 0 994.7 -0.2 80
2020-04-06 05:00:00 13.7 0 Calma 4 Sudoeste 0 994.6 -0.2 85
2020-04-06 04:00:00 13.7 0 Calma 3 Oeste 0 994.8 0.4 87
2020-04-06 03:00:00 13.8 0 Calma 5 Sudoeste 0 994.9 0.9 85
2020-04-06 02:00:00 13.6 0 Calma 10 Oeste 0 994.8 1 83
2020-04-06 01:00:00 13.7 8 Noroeste 15 Sudoeste 0 994.4 1.5 75
2020-04-06 00:00:00 15.1 9 Sudoeste 16 Oeste 0 994 1.9 65
2020-04-05 23:00:00 16 8 Oeste 13 Oeste 0 993.8 2.4 61
2020-04-05 22:00:00 17 8 Oeste 13 Oeste 0 992.9 1.8 56
2020-04-05 21:00:00 18.5 8 Oeste 25 Oeste 0 992.1 1.2 46
2020-04-05 20:00:00 21.3 12 Oeste 22 Oeste 0 991.4 0.2 39
2020-04-05 19:00:00 22.1 17 Oeste 31 Noroeste 0 991.1 -0.6 38
2020-04-05 18:00:00 22.1 4 Noroeste 20 Oeste 0 990.9 -1.2 40
2020-04-05 17:00:00 22.7 14 Noroeste 25 Noroeste 0 991.2 -1.9 39
2020-04-05 16:00:00 22.7 8 Noroeste 19 Noroeste 0 991.7 -1.8 38
2020-04-05 15:00:00 22.1 9 Sudoeste 21 Oeste 0 992.1 -2 38
2020-04-05 14:00:00 21.8 2 Noroeste 10 Este 0 993.1 -0.6 37
2020-04-05 13:00:00 19.8 4 Sudeste 13 Sudeste 0 993.5 -0.3 42
2020-04-05 12:00:00 17.7 4 Sudeste 18 Este 0 994.1 0.6 49
2020-04-05 11:00:00 15.7 5 Este 13 Sudeste 0 993.7 0.6 60
2020-04-05 10:00:00 13.2 0 Calma 4 Este 0 993.8 1.5 90
2020-04-05 09:00:00 8.6 0 Calma 0 Calma 0 993.5 1.3 99
2020-04-05 08:00:00 6.5 0 Calma 2 Sudeste 0 993.1 1.5 99
2020-04-05 07:00:00 7 0 Calma 3 Oeste 0 992.3 0.7 99
2020-04-05 06:00:00 8 0 Calma 4 Sudoeste 0 992.2 0.3 99
2020-04-05 05:00:00 8.1 0 Calma 4 Este 0 991.6 -0.4 99
2020-04-05 04:00:00 8.7 0 Calma 3 Este 0 991.6 -0.4 98
2020-04-05 03:00:00 9.5 2 Sudeste 5 Este 0 991.9 0 96
2020-04-05 02:00:00 10.6 0 Calma 5 Sur 0 992 0.5 93
2020-04-05 01:00:00 12.3 0 Calma 8 Sudoeste 0 992 1.1 80
2020-04-05 00:00:00 14.2 8 Sudoeste 12 Sudoeste 0 991.9 1.8 70
2020-04-04 23:00:00 13.8 0 Calma 12 Noroeste 0 991.5 1.9 77
2020-04-04 22:00:00 14 4 Oeste 10 Oeste 0 990.9 1.9 70
2020-04-04 21:00:00 15.6 5 Oeste 17 Noroeste 0 990.1 1 57
2020-04-04 20:00:00 17.3 12 Noroeste 20 Sur 0 989.6 0.9 43
2020-04-04 19:00:00 17.5 8 Sur 21 Sudoeste 0 989 0.1 40
2020-04-04 18:00:00 19.8 14 Oeste 21 Oeste 0 989.1 -0.1 37
2020-04-04 17:00:00 21.8 9 Oeste 16 Sudoeste 0 988.7 -0.9 32
2020-04-04 16:00:00 21.3 9 Oeste 15 Oeste 0 988.9 -0.9 31
2020-04-04 15:00:00 21.3 5 Este 13 Este 0 989.2 -0.7 28
2020-04-04 14:00:00 20.9 4 Sudeste 15 Sudeste 0 989.6 0.3 32
2020-04-04 13:00:00 19.3 7 Este 20 Este 0 989.8 0.1 35
2020-04-04 12:00:00 18.7 11 Este 26 Este 0 989.9 0 39
2020-04-04 11:00:00 15.6 11 Este 23 Este 0 989.3 -0.5 49
2020-04-04 10:00:00 13.9 9 Este 20 Este 0 989.7 0.1 56
2020-04-04 09:00:00 9.8 4 Sudeste 9 Este 0 989.9 0.1 94
2020-04-04 08:00:00 7.3 0 Calma 6 Sudeste 0 989.8 -0.2 99
2020-04-04 07:00:00 6.6 0 Calma 3 Sudeste 0 989.6 -0.7 99
2020-04-04 06:00:00 7 0 Calma -- -- 0 989.8 -1 99
2020-04-04 05:00:00 7.2 0 Calma -- -- 0 990 -1.1 99
2020-04-04 04:00:00 7.7 0 Calma 5 Este 0 990.3 -0.8 99
2020-04-04 03:00:00 8.7 0 Calma 4 Sudeste 0 990.8 -0.1 99
2020-04-04 02:00:00 9 4 Sudeste 6 Este 0 991.1 1 98
2020-04-04 01:00:00 9.8 3 Oeste 7 Sur 0 991.1 1.2 96
2020-04-04 00:00:00 11.8 3 Noroeste 9 Oeste 0 990.9 1.6 85
2020-04-03 23:00:00 11.5 0 Calma 4 Noroeste 0 990.1 0.9 90
2020-04-03 22:00:00 13.3 2 Oeste 9 Oeste 0 989.9 0.6 75
2020-04-03 21:00:00 15.1 0 Calma 5 Sur 0 989.3 -0.2 58
2020-04-03 20:00:00 19.1 3 Sudeste 9 Este 0 989.2 -0.6 38
2020-04-03 19:00:00 20.1 3 Este 14 Este 0 989.3 -1.1 34
2020-04-03 18:00:00 21.3 0 Calma 14 Sudeste 0 989.5 -1.8 31
2020-04-03 17:00:00 20.6 4 Este 19 Este 0 989.8 -2.2 36
2020-04-03 16:00:00 18.7 6 Este 15 Sudeste 0 990.4 -2.3 42
2020-04-03 15:00:00 19 6 Sudeste 13 Sudeste 0 991.3 -1.8 47
2020-04-03 14:00:00 18.2 3 Nordeste 15 Sudeste 0 992 -0.8 54
2020-04-03 13:00:00 16.7 2 Este 14 Este 0 992.7 0 58
2020-04-03 12:00:00 14 7 Sudeste 18 Sudeste 0 993.1 0.7 66
2020-04-03 11:00:00 12 6 Este 15 Este 0.1 992.8 0.7 82
2020-04-03 10:00:00 10 0 Calma 8 Este 0 992.7 1.1 99
2020-04-03 09:00:00 6.6 0 Calma 2 Oeste 0 992.4 1 99
2020-04-03 08:00:00 6.1 0 Calma 5 Este 0 992.1 1 99
2020-04-03 07:00:00 6.3 0 Calma 6 Este 0 991.6 0.4 99
2020-04-03 06:00:00 6.3 0 Calma -- -- 0 991.4 0.4 99
2020-04-03 05:00:00 6.9 0 Calma 5 Este 0 991.1 0.1 99
2020-04-03 04:00:00 6.4 0 Calma 4 Noroeste 0 991.2 0.1 99
2020-04-03 03:00:00 7.3 4 Noroeste 6 Oeste 0 991 0.1 99
2020-04-03 02:00:00 7.8 0 Calma 5 Este 0 991 0.4 99
2020-04-03 01:00:00 8.9 0 Calma 4 Noroeste 0 991.1 1.4 99
2020-04-03 00:00:00 9 0 Calma 3 Sudoeste 0 990.9 2 98
2020-04-02 23:00:00 9.4 0 Calma 5 Noroeste 0 990.6 2.5 96
2020-04-02 22:00:00 10.1 0 Calma 9 Sudoeste 0 989.7 1.9 92
2020-04-02 21:00:00 11.9 5 Sudoeste 15 Oeste 0 988.9 1.4 80
2020-04-02 20:00:00 12.7 10 Oeste 19 Oeste 0 988.1 1.1 82
2020-04-02 19:00:00 13.3 5 Oeste 10 Oeste 0 987.8 0.4 66
2020-04-02 18:00:00 13.2 4 Oeste 19 Oeste 0 987.5 -0.3 64
2020-04-02 17:00:00 13.9 12 Oeste 20 Oeste 0 987 -1 67
2020-04-02 16:00:00 12.3 8 Oeste 15 Noroeste 0 987.4 -0.5 74
2020-04-02 15:00:00 10.8 8 Noroeste 14 Oeste 0.5 987.8 0 87
2020-04-02 14:00:00 9.4 0 Calma 18 Este 2 988 0.3 96
2020-04-02 13:00:00 9.8 8 Este 17 Este 1.6 987.9 0.8 98
2020-04-02 12:00:00 9.7 11 Este 19 Este 1.1 987.8 0.7 94
2020-04-02 11:00:00 10 5 Sudeste 19 Este 0.1 987.7 0.8 99
2020-04-02 10:00:00 9.3 3 Este 8 Este 1.5 987.1 0.6 99
2020-04-02 09:00:00 8.7 2 Sur 6 Sudeste 1.8 987.1 0.6 99
2020-04-02 08:00:00 8.7 0 Calma 4 Este 1.8 986.9 -0.2 99
2020-04-02 07:00:00 8.6 2 Sudeste 7 Sur 0.6 986.5 -0.9 99
2020-04-02 06:00:00 8.6 3 Sur 7 Sudeste 1.3 986.5 -1.7 99
2020-04-02 05:00:00 8.4 3 Este 7 Este 0.3 987.1 -1.5 99
2020-04-02 04:00:00 7.4 0 Calma 5 Este 0 987.4 -1.8 99
2020-04-02 03:00:00 7.1 0 Calma 5 Este 0 988.2 -1.4 99
2020-04-02 02:00:00 7.3 0 Calma 5 Este 0 988.6 -0.7 99
2020-04-02 01:00:00 7.8 0 Calma 6 Norte 0 989.2 0.4 98
2020-04-02 00:00:00 8.6 0 Calma 8 Sudoeste 0 989.6 1.5 95
2020-04-01 23:00:00 10.1 6 Sudoeste 15 Sudoeste 0 989.3 1.7 85
2020-04-01 22:00:00 11.1 8 Sudoeste 15 Oeste 0 988.8 1.8 85
2020-04-01 21:00:00 11.3 13 Oeste 27 Oeste 0 988.1 1.1 76
2020-04-01 20:00:00 13.2 18 Oeste 34 Oeste 0 987.6 0.6 63
2020-04-01 19:00:00 16.4 16 Oeste 24 Oeste 0 987 -0.2 46
2020-04-01 18:00:00 16.7 18 Oeste 31 Oeste 0 987 -0.6 46
2020-04-01 17:00:00 16.9 18 Oeste 30 Oeste 0 987 -1.1 50
2020-04-01 16:00:00 16.2 17 Oeste 28 Oeste 0 987.2 -1.5 51
2020-04-01 15:00:00 16.4 15 Oeste 27 Oeste 0 987.6 -1.4 58
2020-04-01 14:00:00 15.2 16 Oeste 25 Noroeste 0 988.1 -0.8 63
2020-04-01 13:00:00 15.1 9 Oeste 25 Oeste 0 988.7 0 68
2020-04-01 12:00:00 13.5 2 Oeste 14 Oeste 0 989 0.9 69
2020-04-01 11:00:00 13.2 6 Oeste 13 Oeste 0 988.9 1.7 76
2020-04-01 10:00:00 12.2 8 Oeste 12 Noroeste 0 988.7 1.8 88
2020-04-01 09:00:00 10.2 0 Calma -- -- 0 988.1 1.4 99
2020-04-01 08:00:00 9.9 0 Calma 6 Sudoeste 0 987.2 0.6 99
2020-04-01 07:00:00 10.1 5 Sur 7 Sudoeste 0 986.9 0.3 99
2020-04-01 06:00:00 10.4 0 Calma 6 Oeste 0 986.7 0 99
2020-04-01 05:00:00 10.6 0 Calma 11 Oeste 0 986.6 0 97
2020-04-01 04:00:00 11.6 8 Oeste 12 Oeste 0 986.6 0.3 95
2020-04-01 03:00:00 11.8 7 Oeste 14 Sudoeste 0 986.7 0.7 95
2020-04-01 02:00:00 12.1 7 Oeste 13 Oeste 0.1 986.6 1.1 94
2020-04-01 01:00:00 12.2 6 Oeste 18 Oeste 0 986.3 1.8 91
2020-04-01 00:00:00 12.3 7 Oeste 20 Sudoeste 0 986 2.4 89
2020-03-31 23:00:00 13 9 Sudoeste 19 Sudoeste 0.4 985.5 2.9 89
2020-03-31 22:00:00 13 6 Noroeste 14 Sudoeste 0.1 984.5 2.4 92
2020-03-31 21:00:00 12.9 0 Calma 15 Oeste 3.9 983.6 2.2 99
2020-03-31 20:00:00 13.6 0 Calma 4 Sudeste 0 982.6 1.5 98
2020-03-31 19:00:00 13.7 4 Sudeste 21 Sudeste 1.9 982.1 0.3 95
2020-03-31 18:00:00 14.2 2 Norte 6 Norte 0.5 981.4 0.7 85
2020-03-31 17:00:00 15.5 0 Calma 7 Noroeste 0.1 981.1 0 77
2020-03-31 16:00:00 12.9 4 Sur 45 Oeste 8.1 981.8 0.3 94
2020-03-31 15:00:00 17.3 10 Sur 27 Sudeste 0 980.7 -1 52
2020-03-31 14:00:00 18.7 12 Sur 26 Sudeste 0 981.1 -0.4 54
2020-03-31 13:00:00 17.4 8 Sudoeste 20 Sudeste 0 981.5 0.6 60
2020-03-31 12:00:00 14.6 3 Sur 14 Este 0 981.7 1 77
2020-03-31 11:00:00 12.6 6 Este 11 Sudeste 0 981.5 1.9 92
2020-03-31 10:00:00 11.9 6 Este 14 Sudeste 0 980.9 1.5 95
2020-03-31 09:00:00 10.7 4 Sudeste 10 Este 1 980.7 1.2 99
2020-03-31 08:00:00 10.4 3 Sudeste 12 Este 0 979.6 -1.4 99
2020-03-31 07:00:00 10.3 6 Sudeste 12 Este 0.1 979.4 -1.7 99
2020-03-31 06:00:00 10.3 4 Sudeste 15 Este 1 979.5 -1.9 99
2020-03-31 05:00:00 10.5 5 Sudeste 11 Este 4.7 981 -1.3 99
2020-03-31 04:00:00 10.5 5 Sudeste 15 Sudeste 3.7 981.1 -2.3 99
2020-03-31 03:00:00 10.4 5 Sudeste 12 Este 2.6 981.4 -2.1 99
2020-03-31 02:00:00 10.3 5 Sudeste 21 Este 1.7 982.3 -2 99
2020-03-31 01:00:00 10.4 8 Sudeste 15 Sudeste 2.9 983.4 -1.1 99
2020-03-31 00:00:00 10.6 5 Sudeste 11 Sur 0.5 983.5 -1 99
2020-03-30 23:00:00 10.9 5 Sudeste 9 Sudeste 0.6 984.3 0.9 99
2020-03-30 22:00:00 11.1 7 Oeste 21 Oeste 1.3 984.5 1.6 98
2020-03-30 21:00:00 11.7 16 Oeste 28 Oeste 1.2 984.5 1.3 94
2020-03-30 20:00:00 13.6 13 Sudoeste 25 Oeste 0.4 983.4 -0.1 81
2020-03-30 19:00:00 17.4 18 Oeste 26 Oeste 0 982.9 -1.4 52
2020-03-30 18:00:00 17.9 12 Oeste 22 Oeste 0 983.2 -2.3 49
2020-03-30 17:00:00 18.7 9 Oeste 20 Sudoeste 0 983.5 -3 46
2020-03-30 16:00:00 17.9 8 Oeste 17 Oeste 0 984.3 -3.3 47
2020-03-30 15:00:00 17.6 5 Oeste 11 Oeste 0 985.5 -3 55
2020-03-30 14:00:00 16.7 3 Noroeste 14 Noroeste 0 986.5 -2.2 66
2020-03-30 13:00:00 15 5 Noroeste 14 Noroeste 0 987.6 -1.3 71
2020-03-30 12:00:00 13.8 8 Norte 15 Noroeste 0 988.5 -0.6 79
2020-03-30 11:00:00 13.6 9 Noroeste 14 Noroeste 0 988.7 0 80
2020-03-30 10:00:00 12.3 6 Noroeste 12 Noroeste 0 988.9 0.5 90
2020-03-30 09:00:00 12 9 Noroeste 15 Oeste 0 989.1 0.1 90
2020-03-30 08:00:00 11.8 8 Noroeste 15 Oeste 0 988.7 -0.6 89
2020-03-30 07:00:00 11.1 0 Calma -- -- 0 988.4 -1.4 91
2020-03-30 06:00:00 10 0 Calma 0 Calma 0 989 -1.1 94
2020-03-30 05:00:00 9.2 0 Calma 3 Noroeste 0 989.3 -1.2 97
2020-03-30 04:00:00 9.3 2 Oeste 4 Oeste 0 989.8 -1 94
2020-03-30 03:00:00 10.7 3 Oeste 9 Oeste 0 990.1 -0.6 78
2020-03-30 02:00:00 12.7 3 Noroeste 21 Sudoeste 0 990.5 -0.5 63
2020-03-30 01:00:00 13.7 3 Noroeste 19 Sudoeste 0 990.8 0.1 60
2020-03-30 00:00:00 15.4 13 Sudoeste 19 Oeste 0 990.7 0.3 50
2020-03-29 23:00:00 14.9 2 Noroeste 10 Sudoeste 0 991 0.5 51
2020-03-29 22:00:00 16 5 Noroeste 15 Sudoeste 0 990.7 0.2 46
2020-03-29 21:00:00 17.3 11 Oeste 17 Oeste 0 990.4 -0.2 41
2020-03-29 20:00:00 19.1 11 Oeste 17 Oeste 0 990.5 -0.6 36
2020-03-29 19:00:00 20 3 Oeste 17 Oeste 0 990.5 -1.4 32
2020-03-29 18:00:00 20.2 6 Noroeste 18 Oeste 0 990.6 -2.2 32
2020-03-29 17:00:00 21.6 2 Oeste 18 Oeste 0 991.1 -2.5 31
2020-03-29 16:00:00 20.1 5 Oeste 13 Sudoeste 0 991.9 -2.3 34
2020-03-29 15:00:00 18.6 3 Sudeste 14 Oeste 0 992.8 -2.1 44
2020-03-29 14:00:00 17.7 4 Nordeste 12 Norte 0 993.6 -1.5 50
2020-03-29 13:00:00 16.6 0 Calma 10 Sudeste 0 994.2 -0.9 52
2020-03-29 12:00:00 15.5 5 Este 15 Sudeste 0 994.9 0 56
2020-03-29 11:00:00 13.1 6 Este 14 Este 0 995.1 0.6 63
2020-03-29 10:00:00 10.8 6 Este 11 Este 0 995.1 0.9 75
2020-03-29 09:00:00 9.3 2 Sudeste 8 Este 0 994.9 0.6 86
2020-03-29 08:00:00 8.3 0 Calma -- -- 0 994.5 0.2 91
2020-03-29 07:00:00 8.8 0 Calma 5 Este 0 994.2 -0.3 87
2020-03-29 06:00:00 8 0 Calma 3 Este 0 994.3 -0.3 91
2020-03-29 05:00:00 8 0 Calma 3 Sur 0 994.3 -0.3 93
2020-03-29 03:00:00 8.6 5 Oeste 9 Oeste 0 994.6 0.8 86
2020-03-29 01:00:00 9.8 8 Oeste 10 Oeste 0 994.6 1.7 77
2020-03-29 00:00:00 9.9 2 Noroeste 8 Noroeste 0 994.5 2.1 70
2020-03-28 23:00:00 12 4 Noroeste 15 Este 0 993.8 2.2 64
2020-03-28 22:00:00 10 0 Calma 6 Oeste 0 992.9 1.7 69
2020-03-28 21:00:00 11.7 0 Calma 8 Oeste 0 992.4 1.6 58
2020-03-28 20:00:00 13.8 2 Sur 5 Sudoeste 0 991.6 0.9 49
2020-03-28 19:00:00 18.1 2 Sudeste 8 Sudeste 0 991.2 0.5 35
2020-03-28 18:00:00 19.2 4 Este 13 Nordeste 0 990.8 -0.3 32
2020-03-28 17:00:00 19.4 6 Noroeste 17 Oeste 0 990.7 -0.9 30
2020-03-28 16:00:00 19.6 8 Oeste 15 Noroeste 0 990.7 -1.3 31
2020-03-28 15:00:00 20.4 0 Calma 12 Noroeste 0 991.1 -1.2 31
2020-03-28 14:00:00 19 5 Sudeste 17 Sudeste 0 991.6 -0.8 35
2020-03-28 13:00:00 17.4 3 Sudoeste 17 Sudeste 0 992 -0.2 41
2020-03-28 12:00:00 16.6 4 Este 16 Este 0 992.3 0.5 46
2020-03-28 11:00:00 14.8 7 Sudeste 19 Este 0 992.4 0.9 53
2020-03-28 10:00:00 12.7 7 Este 19 Este 0 992.2 1.3 57
2020-03-28 09:00:00 10.1 6 Este 14 Este 0 991.8 1.4 68
2020-03-28 08:00:00 6.1 0 Calma 3 Noroeste 0 991.5 1.5 96
2020-03-28 07:00:00 4.3 0 Calma 2 Sudoeste 0 990.9 1.1 96
2020-03-28 06:00:00 4.5 0 Calma 4 Sudeste 0 990.4 0.9 95
2020-03-28 05:00:00 5.5 3 Este 6 Sudeste 0 990 0.3 94
2020-03-28 04:00:00 6 0 Calma 5 Este 0 989.8 0.2 87
2020-03-28 03:00:00 6.6 0 Calma 7 Norte 0 989.5 0.4 83
2020-03-28 02:00:00 8.8 2 Nordeste 8 Norte 0 989.7 0.8 71
2020-03-28 01:00:00 8.9 0 Calma 10 Nordeste 0 989.6 1.5 69
2020-03-28 00:00:00 10.4 4 Este 16 Nordeste 0 989.1 2.1 61
2020-03-27 23:00:00 10.8 6 Este 17 Nordeste 0 988.9 3.2 59
2020-03-27 22:00:00 11.6 4 Este 17 Norte 0 988.1 3 58
2020-03-27 21:00:00 12.5 4 Nordeste 12 Nordeste 0 987 2.7 56
2020-03-27 20:00:00 13.1 3 Norte 21 Norte 0 985.7 2.1 53
2020-03-27 19:00:00 13.9 9 Norte 24 Norte 0 985.1 1.6 49
2020-03-27 18:00:00 16 16 Noroeste 28 Noroeste 0 984.3 0.5 40
2020-03-27 17:00:00 18.1 20 Oeste 67 Oeste 0 983.6 -0.5 37
2020-03-27 16:00:00 17.5 25 Oeste 42 Oeste 0 983.5 -1.2 32
2020-03-27 15:00:00 17.7 26 Oeste 42 Oeste 0 983.8 -1.4 40
2020-03-27 14:00:00 17.3 23 Oeste 34 Oeste 0 984.1 -1.7 46
2020-03-27 13:00:00 15.6 17 Noroeste 28 Oeste 0 984.7 -0.6 59
2020-03-27 12:00:00 14.1 18 Noroeste 28 Oeste 0 985.2 0.3 66
2020-03-27 11:00:00 13.2 16 Oeste 27 Noroeste 0 985.8 1.3 74
2020-03-27 10:00:00 12.1 14 Oeste 22 Oeste 0 985.3 1.4 80
2020-03-27 09:00:00 11.1 13 Noroeste 19 Oeste 0 984.9 1.5 86
2020-03-27 08:00:00 8.3 0 Calma 4 Oeste 0 984.5 1.3 99
2020-03-27 07:00:00 7.9 0 Calma 5 Oeste 0 983.9 0.6 99
2020-03-27 06:00:00 8.2 4 Oeste 7 Oeste 0 983.4 -0.2 95
2020-03-27 05:00:00 8.1 2 Oeste 7 Oeste 0 983.2 -1 96
2020-03-27 04:00:00 8.8 0 Calma 12 Sudoeste 0 983.3 -0.8 94
2020-03-27 03:00:00 10.8 6 Oeste 15 Oeste 0 983.6 -0.5 83
2020-03-27 02:00:00 10.3 4 Oeste 20 Sudoeste 0 984.2 0.5 77
2020-03-27 01:00:00 13.5 17 Sudoeste 50 Sudoeste 0 984.1 0.3 58
2020-03-27 00:00:00 13.2 13 Sudoeste 24 Sudoeste 0 984.1 0.5 51
2020-03-26 23:00:00 12.5 7 Oeste 12 Oeste 0 983.7 0.6 50
2020-03-26 22:00:00 13.4 6 Oeste 13 Oeste 0 983.8 1.2 43
2020-03-26 21:00:00 15.1 9 Oeste 12 Oeste 0 983.6 1.5 41
2020-03-26 20:00:00 15.2 6 Oeste 21 Noroeste 0 983.1 1 36
2020-03-26 19:00:00 19.6 15 Noroeste 30 Noroeste 0 982.6 -0.2 27
2020-03-26 18:00:00 21.2 19 Oeste 36 Oeste 0 982.1 -1.6 29
2020-03-26 17:00:00 20.9 21 Oeste 39 Oeste 0 982.1 -2.4 40
2020-03-26 16:00:00 20.7 19 Oeste 34 Sudoeste 0 982.8 -2.5 43
2020-03-26 15:00:00 20.3 15 Oeste 33 Oeste 0 983.7 -2.4 45
2020-03-26 14:00:00 18.6 17 Oeste 31 Sudoeste 0 984.5 -2.2 50
2020-03-26 13:00:00 17.6 20 Oeste 31 Oeste 0 985.3 -1.7 54
2020-03-26 12:00:00 17.7 15 Oeste 27 Oeste 0 986.1 -0.8 59
2020-03-26 11:00:00 15.4 18 Oeste 29 Sudoeste 0 986.7 -0.4 73
2020-03-26 10:00:00 14 17 Oeste 27 Oeste 0 987 0.2 84
2020-03-26 09:00:00 12.5 15 Oeste 25 Oeste 0 986.9 0 94
2020-03-26 08:00:00 12.2 13 Oeste 27 Oeste 0 987.1 0.5 98
2020-03-26 07:00:00 12.2 13 Oeste 24 Oeste 0 986.8 -0.8 97
2020-03-26 06:00:00 12.2 12 Oeste 21 Oeste 0 986.9 -1.6 97
2020-03-26 05:00:00 12.1 18 Sudoeste 28 Sudoeste 0 986.6 -2.7 95
2020-03-26 04:00:00 12.4 8 Oeste 26 Oeste 0 987.6 -1.9 92
2020-03-26 03:00:00 12.6 18 Oeste 36 Sudoeste 0 988.5 -1.2 91
2020-03-26 02:00:00 13 19 Oeste 30 Oeste 0 989.3 -0.7 85
2020-03-26 01:00:00 13.4 13 Oeste 23 Sudoeste 0 989.5 -0.3 84
2020-03-26 00:00:00 13.6 11 Oeste 22 Oeste 0 989.7 0.2 81
2020-03-25 23:00:00 13.6 10 Noroeste 15 Oeste 0 990 1.1 81
2020-03-25 22:00:00 14.1 11 Oeste 16 Oeste 0 989.8 1.3 74
2020-03-25 21:00:00 14.5 11 Oeste 18 Oeste 0 989.5 1 69
2020-03-25 20:00:00 15.7 13 Oeste 24 Sudoeste 0 988.9 0.1 62
2020-03-25 19:00:00 17 14 Oeste 24 Oeste 0 988.5 -0.6 52
2020-03-25 18:00:00 18.7 10 Oeste 16 Oeste 0 988.5 -1.3 35
2020-03-25 17:00:00 18.9 10 Oeste 22 Oeste 0 988.8 -1.7 36
2020-03-25 16:00:00 20 7 Oeste 15 Oeste 0 989.1 -1.8 34
2020-03-25 15:00:00 18.8 4 Sudeste 15 Sudeste 0 989.8 -1.5 36
2020-03-25 14:00:00 18.7 4 Oeste 15 Sudeste 0 990.5 -1.1 37
2020-03-25 13:00:00 18.7 5 Sudeste 16 Sudeste 0 990.9 -0.4 36
2020-03-25 12:00:00 16.8 2 Nordeste 10 Este 0 991.3 0.1 41
2020-03-25 11:00:00 17.1 0 Calma 8 Sudeste 0 991.6 0.8 45
2020-03-25 10:00:00 14.9 4 Sudeste 14 Sudeste 0 991.3 0.8 48
2020-03-25 09:00:00 14.1 3 Sudeste 7 Sudeste 0 991.2 1 53
2020-03-25 08:00:00 11.4 0 Calma 10 Este 0 990.8 0.7 70
2020-03-25 07:00:00 11.1 5 Este 17 Este 0 990.5 0.5 63
2020-03-25 06:00:00 11.2 7 Sudeste 18 Este 0 990.2 0 63
2020-03-25 05:00:00 11.7 9 Este 26 Sudeste 0 990.1 -0.2 58
2020-03-25 04:00:00 12.5 9 Este 23 Nordeste 0 990 0 55
2020-03-25 03:00:00 12.3 9 Este 21 Sudeste 0 990.2 0.3 57
2020-03-25 02:00:00 12.6 9 Este 24 Este 0 990.3 0.7 59
2020-03-25 01:00:00 12.6 8 Este 18 Este 0 990 1 62
2020-03-25 00:00:00 13.2 8 Este 21 Sudeste 0 989.9 1.7 59
2020-03-24 23:00:00 13.5 9 Este 22 Este 0 989.6 2.5 56
2020-03-24 22:00:00 13.9 7 Este 26 Este 0 989 2.7 54
2020-03-24 21:00:00 15.2 6 Este 18 Este 0 988.2 2.5 51
2020-03-24 20:00:00 15.4 6 Este 25 Este 0 987.1 2 49
2020-03-24 19:00:00 17.1 6 Este 26 Este 0 986.3 1.3 46
2020-03-24 18:00:00 18 10 Este 26 Este 0 985.7 0.7 43
2020-03-24 17:00:00 18.7 8 Este 25 Este 0 985.1 -0.3 42
2020-03-24 16:00:00 18.8 10 Este 28 Este 0 985 -0.6 42
2020-03-24 15:00:00 20.5 10 Este 28 Nordeste 0 985 -1.2 42
2020-03-24 14:00:00 18.7 14 Este 31 Este 0 985.4 -0.9 44
2020-03-24 13:00:00 18.5 14 Este 33 Este 0 985.6 -0.4 45
2020-03-24 12:00:00 17 12 Este 28 Sudeste 0 986.2 0.2 47
2020-03-24 11:00:00 15.3 13 Este 29 Este 0 986.3 0.3 54
2020-03-24 10:00:00 13.6 10 Este 29 Sudeste 0 986 0.4 57
2020-03-24 09:00:00 13.1 11 Este 22 Este 0 986 0.3 61
2020-03-24 08:00:00 11.4 8 Este 21 Este 0 986 0.1 70
2020-03-24 07:00:00 9 0 Calma 9 Este 0 985.6 -0.5 91
2020-03-24 06:00:00 10.8 3 Este 12 Este 0 985.7 -0.8 81
2020-03-24 05:00:00 9.4 3 Este 12 Sudeste 0 985.9 -0.9 89
2020-03-24 04:00:00 8.4 0 Calma 7 Sudeste 0 986.1 -1.4 98
2020-03-24 03:00:00 9.7 0 Calma 10 Este 0 986.5 -1.3 96
2020-03-24 02:00:00 10.3 0 Calma 11 Este 0 986.8 -1.4 99
2020-03-24 01:00:00 10.8 4 Sudeste 10 Este 0 987.5 -1.1 99
2020-03-24 00:00:00 10.5 3 Este 9 Este 0 987.8 -0.6 99
2020-03-23 23:00:00 11.2 5 Este 15 Sudeste 1.6 988.2 0.2 99
2020-03-23 22:00:00 11.4 8 Este 17 Este 0.6 988.6 1 98
2020-03-23 21:00:00 11.4 4 Este 10 Nordeste 0.3 988.4 1.3 98
2020-03-23 20:00:00 11.2 0 Calma 10 Oeste 0.6 988 2.1 96
2020-03-23 19:00:00 11.8 7 Sudoeste 14 Este 0.3 987.6 2.1 87
2020-03-23 18:00:00 12.5 5 Este 27 Sudeste 2 987.1 0.8 87
2020-03-23 17:00:00 13.5 18 Este 36 Sudeste 1.4 985.9 -1.3 50
2020-03-23 16:00:00 18.4 5 Nordeste 14 Este 0 985.5 -2.4 36
2020-03-23 15:00:00 17.9 8 Este 22 Sudeste 0 986.3 -2.5 38
2020-03-23 14:00:00 17.4 6 Este 16 Este 0 987.2 -1.9 38
2020-03-23 13:00:00 17 3 Nordeste 16 Sudeste 0 987.9 -1.4 41
2020-03-23 12:00:00 15.3 8 Este 22 Este 0 988.8 -0.3 52
2020-03-23 11:00:00 14.5 11 Este 19 Este 0 989.1 0.3 64
2020-03-23 10:00:00 11.5 4 Este 12 Este 0 989.3 0.9 81
2020-03-23 09:00:00 9 0 Calma 4 Este 0 989.1 0.8 99
2020-03-23 08:00:00 7.3 0 Calma -- -- 0 988.8 0.7 99
2020-03-23 07:00:00 6.7 0 Calma 3 Sudeste 0 988.4 0.4 99
2020-03-23 06:00:00 6.8 0 Calma 0 Calma 0 988.3 0 99
2020-03-23 05:00:00 6.4 0 Calma -- -- 0 988.1 -0.2 99
2020-03-23 04:00:00 7.6 0 Calma -- -- 0 988 -0.6 99
2020-03-23 03:00:00 7.9 0 Calma -- -- 0 988.3 -0.4 99
2020-03-23 02:00:00 7.4 0 Calma -- -- 0 988.3 -0.3 99
2020-03-23 01:00:00 8.5 0 Calma -- -- 0 988.6 0.6 99
2020-03-23 00:00:00 8.9 0 Calma -- -- 0 988.7 0.9 98
2020-03-22 23:00:00 8 0 Calma 5 Oeste 0 988.6 1.5 98
2020-03-22 22:00:00 8.6 0 Calma 6 Nordeste 0 988 1.8 94
2020-03-22 21:00:00 10.4 3 Sur 17 Sur 0 987.8 1.9 83
2020-03-22 20:00:00 11.4 9 Sudoeste 14 Sur 0 987.1 1.7 81
2020-03-22 19:00:00 12.9 6 Sudoeste 12 Sudoeste 0 986.2 0.5 70
2020-03-22 18:00:00 13.8 6 Noroeste 14 Noroeste 0 985.9 -0.3 55
2020-03-22 17:00:00 14.9 7 Norte 19 Norte 0 985.4 -0.7 55
2020-03-22 16:00:00 12.2 6 Norte 14 Norte 0 985.7 -0.7 67
2020-03-22 15:00:00 12.4 5 Nordeste 23 Sur 1 986.2 -0.8 73
2020-03-22 14:00:00 13.6 9 Oeste 15 Oeste 0 986.1 -1.1 63
2020-03-22 13:00:00 13.5 3 Noroeste 9 Noroeste 0 986.4 -0.6 61
2020-03-22 12:00:00 12.5 3 Oeste 10 Noroeste 0 987 0.3 63
2020-03-22 11:00:00 10.4 4 Oeste 10 Sudoeste 0 987.2 0.7 83
2020-03-22 10:00:00 9.2 0 Calma 5 Sudoeste 0 987 0.7 99
2020-03-22 09:00:00 7.3 0 Calma 3 Sudeste 0 986.7 0.6 99
2020-03-22 08:00:00 5.7 0 Calma 5 Oeste 0 986.5 0.8 99
2020-03-22 07:00:00 5.6 0 Calma 7 Oeste 0 986.3 0.5 99
2020-03-22 06:00:00 4.9 0 Calma 3 Noroeste 0 986.1 -0.3 99
2020-03-22 05:00:00 5 0 Calma 6 Este 0 985.7 -1.1 99
2020-03-22 04:00:00 5.1 0 Calma 3 Sur 0 985.8 -1.5 99
2020-03-22 03:00:00 5.7 0 Calma 5 Sudeste 0 986.4 -1.2 99
2020-03-22 02:00:00 7.1 0 Calma 5 Sudeste 0 986.8 -1 99
2020-03-22 01:00:00 7 0 Calma 6 Oeste 0 987.3 -0.4 99
2020-03-22 00:00:00 7.3 0 Calma 5 Sudoeste 0 987.6 0.6 99
2020-03-21 23:00:00 8.9 0 Calma 18 Oeste 0 987.8 1.3 96
2020-03-21 22:00:00 10.1 15 Oeste 21 Oeste 0.2 987.7 1.1 92
2020-03-21 21:00:00 10.5 0 Calma 6 Este 0 987 0.4 99
2020-03-21 20:00:00 10.6 3 Este 7 Este 0.1 986.5 0.6 99
2020-03-21 19:00:00 10.8 0 Calma 14 Oeste 1 986.6 0.6 97
2020-03-21 18:00:00 11 12 Oeste 37 Sudoeste 3.5 986.6 -0.2 97
2020-03-21 17:00:00 14.8 3 Sudeste 15 Este 0 985.9 -1.9 52
2020-03-21 16:00:00 15.7 3 Nordeste 11 Este 0 986 -2.8 48
2020-03-21 15:00:00 15.4 3 Sudeste 11 Este 0 986.8 -2.7 49
2020-03-21 14:00:00 14.4 3 Nordeste 9 Este 0 987.8 -1.8 52
2020-03-21 13:00:00 13.9 3 Sur 17 Oeste 0 988.8 -0.8 55
2020-03-21 12:00:00 13 8 Oeste 14 Oeste 0 989.5 0.2 70
2020-03-21 11:00:00 11.9 0 Calma 3 Este 0 989.6 0.6 81
2020-03-21 10:00:00 10.6 0 Calma 4 Nordeste 0 989.6 0.3 95
2020-03-21 09:00:00 9.8 0 Calma 5 Este 0 989.3 0.5 99
2020-03-21 08:00:00 9.2 0 Calma 6 Este 0.5 989 0.9 99
2020-03-21 07:00:00 9.5 3 Oeste 16 Oeste 2 989.3 2.6 99
2020-03-21 06:00:00 9.8 13 Oeste 37 Oeste 3.1 988.8 1.8 98
2020-03-21 05:00:00 10.7 23 Oeste 40 Oeste 4.4 988.1 0.8 98
2020-03-21 04:00:00 12.9 0 Calma 2 Sudeste 0 986.7 -1.2 87
2020-03-21 03:00:00 13.1 0 Calma 4 Sur 0 987 -1.5 85
2020-03-21 02:00:00 13.7 3 Este 6 Este 0 987.3 -0.9 84
2020-03-21 01:00:00 14 0 Calma 8 Noroeste 0 987.9 0.2 80
2020-03-21 00:00:00 14.6 7 Noroeste 18 Oeste 0 988.5 1 75
2020-03-20 23:00:00 14.2 0 Calma 3 Oeste 0 988.2 0.9 76
2020-03-20 22:00:00 14.3 4 Oeste 6 Oeste 0 987.7 0.6 70
2020-03-20 21:00:00 14.7 2 Oeste 16 Oeste 0 987.5 0.4 64
2020-03-20 20:00:00 17.4 9 Oeste 15 Oeste 0 987.3 -0.1 52
2020-03-20 19:00:00 18.8 8 Oeste 16 Oeste 0 987.1 -0.9 44
2020-03-20 18:00:00 20.1 11 Noroeste 16 Noroeste 0 987.1 -1.6 41
2020-03-20 17:00:00 20.1 4 Noroeste 9 Noroeste 0 987.4 -2.2 39
2020-03-20 16:00:00 21.6 0 Calma 14 Oeste 0 988 -2 37
2020-03-20 15:00:00 20.9 4 Nordeste 10 Este 0 988.7 -1.7 39
2020-03-20 14:00:00 19.9 5 Este 12 Este 0 989.6 -1.2 39
2020-03-20 13:00:00 19.5 4 Sudeste 13 Este 0 990 -1.2 40
2020-03-20 12:00:00 17.7 6 Este 17 Este 0 990.4 -0.5 44
2020-03-20 11:00:00 16.3 7 Este 14 Este 0 990.8 0.3 49
2020-03-20 10:00:00 14 4 Este 9 Este 0 991.2 0.9 64
2020-03-20 09:00:00 11.7 4 Este 10 Sudeste 0 990.9 0.9 77
2020-03-20 08:00:00 8.4 0 Calma 7 Este 0 990.5 0.2 96
2020-03-20 07:00:00 9.4 5 Este 10 Este 0 990.3 0.1 91
2020-03-20 06:00:00 8 4 Este 6 Este 0 990 -0.6 95
2020-03-20 05:00:00 8.8 2 Este 8 Sudoeste 0 990.3 -0.2 93
2020-03-20 04:00:00 10.5 2 Sudoeste 7 Sudoeste 0 990.2 -0.2 88
2020-03-20 03:00:00 9.8 5 Noroeste 11 Sur 0 990.6 0 87
2020-03-20 02:00:00 11.6 5 Sudeste 15 Sudeste 0 990.5 0.1 74
2020-03-20 01:00:00 12.5 4 Sudeste 13 Sur 0 990.4 0.4 72
2020-03-20 00:00:00 13.1 4 Sudeste 13 Sudeste 0 990.6 0.4 70
2020-03-19 23:00:00 14.1 7 Este 16 Sudeste 0 990.4 0.8 66
2020-03-19 22:00:00 14.6 5 Sudeste 13 Este 0 990 0.9 66
2020-03-19 21:00:00 14.3 2 Sudeste 9 Sudeste 0 990.2 0.8 67
2020-03-19 20:00:00 15.6 0 Calma 5 Norte 0 989.6 -0.2 60
2020-03-19 19:00:00 19 3 Este 10 Este 0 989.1 -1.2 46
2020-03-19 18:00:00 20.2 2 Nordeste 11 Este 0 989.4 -1.5 45
2020-03-19 17:00:00 20.6 3 Nordeste 17 Sudeste 0 989.8 -2 42
2020-03-19 16:00:00 20 6 Este 18 Este 0 990.3 -2.4 40
2020-03-19 15:00:00 20.1 8 Este 23 Este 0 990.9 -2.7 40
2020-03-19 14:00:00 19.2 12 Este 33 Sudeste 0 991.8 -2.5 42
2020-03-19 13:00:00 19.5 8 Este 26 Sudeste 0 992.7 -1.9 43
2020-03-19 12:00:00 17.9 8 Este 21 Este 0 993.6 -1.1 46
2020-03-19 11:00:00 17.7 6 Este 20 Este 0 994.3 -0.3 49
2020-03-19 10:00:00 15.4 4 Este 12 Sudeste 0 994.6 0.2 61
2020-03-19 09:00:00 12.6 4 Sudeste 8 Este 0 994.7 0.4 74
2020-03-19 08:00:00 8.7 2 Este 6 Este 0 994.6 0.6 92
2020-03-19 07:00:00 8 2 Este 5 Sudeste 0 994.4 0.4 93
2020-03-19 06:00:00 9.8 0 Calma 12 Este 0 994.3 0.2 83
2020-03-19 05:00:00 11.1 3 Sudeste 12 Sudeste 0 994 -0.5 73
2020-03-19 04:00:00 13.9 5 Este 14 Este 0 994 -0.6 63
2020-03-19 03:00:00 13.6 6 Este 21 Este 0 994.1 -0.7 64
2020-03-19 02:00:00 13 3 Sudeste 14 Sudeste 0 994.5 -0.5 69
2020-03-19 01:00:00 13.5 7 Este 19 Nordeste 0 994.6 -0.3 63
2020-03-19 00:00:00 15.2 7 Este 24 Este 0 994.8 0.5 57
2020-03-18 23:00:00 15.8 7 Este 23 Sudeste 0 995 1.2 54
2020-03-18 22:00:00 16.7 8 Este 25 Este 0 994.9 1.7 51
2020-03-18 21:00:00 17.1 8 Este 25 Nordeste 0 994.3 1.4 49
2020-03-18 20:00:00 18.3 8 Este 22 Nordeste 0 993.8 0.6 46
2020-03-18 19:00:00 20.4 10 Este 28 Este 0 993.2 -0.3 39
2020-03-18 18:00:00 21.8 10 Este 30 Este 0 992.9 -1.1 37
2020-03-18 17:00:00 22.5 7 Este 30 Este 0 993.2 -1.6 37
2020-03-18 16:00:00 22.2 17 Este 35 Este 0 993.5 -2.2 36
2020-03-18 15:00:00 21.9 12 Este 40 Este 0 994 -2.1 38
2020-03-18 14:00:00 20.7 23 Este 44 Este 0 994.8 -1.6 39
2020-03-18 13:00:00 20 12 Este 44 Este 0 995.7 -0.7 42
2020-03-18 12:00:00 18.6 26 Este 49 Sudeste 0 996.1 0 44
2020-03-18 11:00:00 17.7 15 Este 40 Este 0 996.4 0.2 49
2020-03-18 10:00:00 16.5 14 Este 32 Este 0 996.4 0.6 56
2020-03-18 09:00:00 14.9 15 Este 39 Este 0 996.1 0.3 62
2020-03-18 08:00:00 13.4 8 Este 22 Este 0 996.2 0.5 67
2020-03-18 07:00:00 13.7 9 Este 37 Este 0 995.8 0.2 64
2020-03-18 06:00:00 14.6 11 Este 26 Este 0 995.8 0.5 63
2020-03-18 05:00:00 14.4 7 Este 23 Este 0 995.7 0.5 64
2020-03-18 04:00:00 14.5 8 Este 26 Este 0 995.6 0.2 65
2020-03-18 03:00:00 14.5 15 Este 36 Sudeste 0 995.3 -0.3 66
2020-03-18 02:00:00 15.1 8 Este 28 Este 0 995.2 -0.6 69
2020-03-18 01:00:00 15.1 13 Este 29 Este 0 995.4 -0.8 71
2020-03-18 00:00:00 14.4 10 Este 28 Este 0 995.6 -0.5 74
2020-03-17 23:00:00 14.2 9 Este 19 Este 0 995.8 0.4 74
2020-03-17 22:00:00 13.5 9 Este 17 Este 0 996.2 1 77
2020-03-17 21:00:00 12.4 6 Este 16 Este 0 996.1 1 77
2020-03-17 20:00:00 13 5 Este 17 Nordeste 0 995.4 0.9 80
2020-03-17 19:00:00 14.4 7 Este 22 Este 0 995.2 1.1 61
2020-03-17 18:00:00 16.4 10 Este 28 Este 0 995.1 0.4 44
2020-03-17 17:00:00 18 12 Este 38 Este 0 994.5 -0.7 38
2020-03-17 16:00:00 19.4 17 Este 36 Este 0 994.1 -1.5 30
2020-03-17 15:00:00 18 7 Este 33 Este 0 994.7 -1.1 31
2020-03-17 14:00:00 18.4 10 Este 30 Este 0 995.2 -0.7 31
2020-03-17 13:00:00 16.6 10 Este 28 Este 0 995.6 -0.4 37
2020-03-17 12:00:00 15.6 9 Este 26 Este 0 995.8 0.2 42
2020-03-17 11:00:00 13 8 Este 19 Este 0 995.9 1.2 48
2020-03-17 10:00:00 10.9 4 Sudeste 12 Este 0 996 2 64
2020-03-17 09:00:00 8.1 5 Sudeste 16 Sudeste 0 995.6 2.2 74
2020-03-17 08:00:00 6.7 5 Sudeste 16 Sur 0 994.7 2 81
2020-03-17 07:00:00 6.6 6 Sudeste 14 Sudeste 0 994 1.3 81
2020-03-17 06:00:00 6.7 3 Sudeste 13 Sudeste 0 993.4 0.4 89
2020-03-17 05:00:00 7 4 Sudeste 10 Este 0 992.7 -0.1 93
2020-03-17 04:00:00 7.3 2 Este 8 Este 0.1 992.7 -0.1 99
2020-03-17 03:00:00 7.4 2 Oeste 7 Oeste 0.1 993 0.5 99
2020-03-17 02:00:00 7.5 0 Calma 4 Sudeste 0.1 992.8 0.6 99
2020-03-17 01:00:00 7.5 0 Calma 3 Este 0.2 992.8 1.3 99
2020-03-17 00:00:00 7.7 2 Sudeste 9 Sudeste 0.4 992.5 1.4 98
2020-03-16 23:00:00 7.9 0 Calma 6 Sudoeste 0 992.2 1.8 94
2020-03-16 22:00:00 7.2 0 Calma 3 Sur 0 991.5 1.8 97
2020-03-16 21:00:00 7.8 0 Calma 10 Sudoeste 0 991.1 1.7 94
2020-03-16 20:00:00 8.5 8 Sudoeste 17 Sudoeste 0.1 990.4 1.1 79
2020-03-16 19:00:00 9.9 10 Sudoeste 18 Sudoeste 0 989.7 0.5 63
2020-03-16 18:00:00 11.1 7 Sudoeste 22 Sudoeste 0 989.4 -0.1 56
2020-03-16 17:00:00 11.9 12 Sudoeste 22 Sudoeste 0 989.3 -0.6 53
2020-03-16 16:00:00 11.4 8 Oeste 24 Sudoeste 0 989.2 -0.7 55
2020-03-16 15:00:00 10.7 13 Noroeste 22 Oeste 0 989.5 -0.7 60
2020-03-16 14:00:00 10.9 14 Oeste 26 Oeste 0 989.9 -0.8 53
2020-03-16 13:00:00 12.5 14 Oeste 22 Oeste 0 989.9 -1.2 56
2020-03-16 12:00:00 10.2 12 Oeste 25 Oeste 0 990.2 -0.8 58
2020-03-16 11:00:00 10.5 8 Noroeste 24 Oeste 0 990.7 0.3 57
2020-03-16 10:00:00 9.2 11 Oeste 22 Oeste 0 991.1 1.3 64
2020-03-16 09:00:00 8.4 14 Oeste 21 Oeste 0 991 2.1 71
2020-03-16 08:00:00 6.9 15 Oeste 26 Oeste 0 990.4 1.9 77
2020-03-16 07:00:00 7.1 11 Sudoeste 20 Sudoeste 0 989.8 2.9 87
2020-03-16 06:00:00 7.3 15 Sudoeste 27 Oeste 0.2 988.9 1.8 86
2020-03-16 05:00:00 8.6 18 Oeste 37 Noroeste 0.5 988.5 1.3 84
2020-03-16 04:00:00 11.6 17 Oeste 27 Oeste 0.2 986.9 -0.3 76
2020-03-16 03:00:00 13 14 Oeste 31 Sudoeste 0.1 987.1 -0.9 82
2020-03-16 02:00:00 14.3 18 Sudoeste 41 Oeste 5.5 987.2 -1.1 94
2020-03-16 01:00:00 15.4 18 Sudoeste 31 Sudoeste 0 987.2 -1.1 80
2020-03-16 00:00:00 15.5 8 Sudoeste 36 Oeste 2.8 988 -0.3 68
2020-03-15 23:00:00 17.3 8 Sudoeste 14 Sudoeste 0 988.3 0.7 48
2020-03-15 22:00:00 17.9 8 Sudoeste 20 Sur 0 988.3 1 44
2020-03-15 21:00:00 18.4 8 Sudoeste 13 Oeste 0 988.3 0.6 53
2020-03-15 20:00:00 17.2 5 Sudoeste 16 Oeste 0 987.6 -0.8 51
2020-03-15 19:00:00 20.9 11 Oeste 24 Sudoeste 0 987.3 -1.6 41
2020-03-15 18:00:00 22.1 16 Sudoeste 27 Sudoeste 0 987.7 -1.8 40
2020-03-15 17:00:00 21.5 16 Noroeste 24 Noroeste 0 988.4 -2.1 44
2020-03-15 16:00:00 21.1 12 Oeste 21 Noroeste 0 988.9 -2.4 47
2020-03-15 15:00:00 20.4 13 Oeste 22 Oeste 0 989.5 -2.7 49
2020-03-15 14:00:00 20.1 9 Oeste 23 Oeste 0 990.5 -2.2 54
2020-03-15 13:00:00 18.3 9 Noroeste 17 Noroeste 0 991.3 -1.6 59
2020-03-15 12:00:00 17.2 9 Oeste 15 Oeste 0 992.2 -0.4 62
2020-03-15 11:00:00 15.2 3 Oeste 7 Noroeste 0 992.7 0.5 72
2020-03-15 10:00:00 13.1 0 Calma 5 Nordeste 0 992.9 0.8 80
2020-03-15 09:00:00 10.8 2 Este 8 Sudeste 0 992.6 0.8 95
2020-03-15 08:00:00 8.6 0 Calma -- -- 0 992.2 0.5 99
2020-03-15 07:00:00 8.3 0 Calma -- -- 0 992.1 0.3 99
2020-03-15 06:00:00 8.4 0 Calma 2 Sudoeste 0 991.8 -0.4 99
2020-03-15 05:00:00 8.1 0 Calma 3 Este 0 991.7 -0.9 99
2020-03-15 04:00:00 9.1 0 Calma 6 Sudeste 0 991.8 -0.9 99
2020-03-15 03:00:00 9.6 0 Calma 4 Sudeste 0 992.2 -0.6 99
2020-03-15 02:00:00 10 0 Calma 6 Este 0 992.6 0 97
2020-03-15 01:00:00 10.9 0 Calma 5 Sudoeste 0 992.7 0.2 93
2020-03-15 00:00:00 11 0 Calma 4 Nordeste 0 992.8 0.6 92
2020-03-14 23:00:00 13 0 Calma 3 Sudoeste 0 992.6 0.9 87
2020-03-14 22:00:00 14.5 0 Calma 10 Noroeste 0 992.5 1.1 77
2020-03-14 21:00:00 17.4 7 Noroeste 17 Sudoeste 0 992.2 0.8 57
2020-03-14 20:00:00 19.5 12 Oeste 16 Oeste 0 991.7 0.2 50
2020-03-14 19:00:00 21.3 10 Oeste 15 Oeste 0 991.4 -0.5 45
2020-03-14 18:00:00 23.9 8 Noroeste 18 Oeste 0 991.4 -1.2 38
2020-03-14 17:00:00 23.6 10 Oeste 20 Oeste 0 991.5 -2.3 40
2020-03-14 16:00:00 23.5 11 Noroeste 17 Noroeste 0 991.9 -3 45
2020-03-14 15:00:00 22.4 5 Noroeste 13 Noroeste 0 992.6 -3 50
2020-03-14 14:00:00 21.8 0 Calma 12 Sudoeste 0 993.8 -2.2 55
2020-03-14 13:00:00 18.4 4 Noroeste 11 Noroeste 0 994.9 -0.9 65
2020-03-14 12:00:00 18.3 0 Calma 8 Nordeste 0 995.6 0.4 72
2020-03-14 11:00:00 15.2 2 Este 7 Sudeste 0 996 1.2 83
2020-03-14 10:00:00 14.1 3 Noroeste 8 Oeste 0 995.8 1.5 90
2020-03-14 09:00:00 13.9 5 Noroeste 11 Noroeste 0 995.2 1 93
2020-03-14 08:00:00 13.6 3 Noroeste 6 Noroeste 0 994.8 1 93
2020-03-14 07:00:00 13.4 0 Calma 4 Oeste 0 994.3 0.6 93
2020-03-14 06:00:00 13 0 Calma 4 Este 0 994.2 0.3 94
2020-03-14 05:00:00 12.4 2 Noroeste 6 Oeste 0 993.8 -0.2 93
2020-03-14 04:00:00 10.9 6 Noroeste 8 Oeste 0 993.7 -0.1 91
2020-03-14 03:00:00 11.4 0 Calma 5 Sudeste 0 993.9 0.3 95
2020-03-14 02:00:00 11.2 0 Calma -- -- 0 994 0.6 91
2020-03-14 01:00:00 12 0 Calma -- -- 0 993.8 0.9 93
2020-03-14 00:00:00 12.9 0 Calma -- -- 0 993.6 1.1 87
2020-03-13 23:00:00 13.6 0 Calma 9 Sudoeste 0 993.4 1.7 80
2020-03-13 22:00:00 16.4 7 Sudoeste 13 Sudoeste 0 992.9 1.7 69
2020-03-13 21:00:00 17.5 8 Sudoeste 13 Sur 0 992.5 1.8 63
2020-03-13 20:00:00 18.8 9 Oeste 22 Oeste 0 991.7 1 53
2020-03-13 19:00:00 21.2 17 Oeste 23 Oeste 0 991.2 0.2 42
2020-03-13 18:00:00 22.3 17 Oeste 24 Oeste 0 990.7 -0.6 39
2020-03-13 17:00:00 23.3 15 Oeste 27 Oeste 0 990.7 -1.3 35
2020-03-13 16:00:00 23.8 17 Oeste 29 Oeste 0 991 -1.8 35
2020-03-13 15:00:00 24.1 19 Oeste 26 Oeste 0 991.3 -2.1 37
2020-03-13 14:00:00 22.7 11 Oeste 22 Noroeste 0 992 -1.8 39
2020-03-13 13:00:00 21.2 11 Oeste 19 Oeste 0 992.8 -1.2 41
2020-03-13 12:00:00 20.7 7 Oeste 16 Noroeste 0 993.4 -0.4 45
2020-03-13 11:00:00 17.4 0 Calma 11 Este 0 993.8 0.3 60
2020-03-13 10:00:00 13.7 4 Este 7 Este 0 994 0.8 74
2020-03-13 09:00:00 10.4 2 Este 4 Oeste 0 993.8 1 93
2020-03-13 08:00:00 6.7 2 Noroeste 4 Noroeste 0 993.5 0.7 99
2020-03-13 07:00:00 7.9 0 Calma 8 Este 0 993.2 0.4 99
2020-03-13 06:00:00 9 0 Calma 5 Oeste 0 992.8 -0.5 99
2020-03-13 05:00:00 9.6 4 Oeste 7 Noroeste 0 992.8 -0.6 94
2020-03-13 04:00:00 11.1 0 Calma 6 Noroeste 0 992.8 -0.8 91
2020-03-13 03:00:00 11.7 0 Calma 5 Noroeste 0 993.3 -0.4 90
2020-03-13 02:00:00 13.8 4 Oeste 7 Oeste 0 993.4 0 80
2020-03-13 01:00:00 14.6 4 Oeste 8 Oeste 0 993.6 0.5 78
2020-03-13 00:00:00 15.6 0 Calma 6 Sudoeste 0 993.7 1.1 70
2020-03-12 23:00:00 16.2 0 Calma 6 Sudoeste 0 993.4 1.6 70
2020-03-12 22:00:00 16.5 0 Calma 10 Oeste 0 993.1 1.6 62
2020-03-12 21:00:00 18.4 2 Noroeste 19 Oeste 0 992.6 1.4 47
2020-03-12 20:00:00 21.5 10 Oeste 21 Oeste 0 991.8 0.6 37
2020-03-12 19:00:00 24.3 16 Oeste 27 Oeste 0 991.5 -0.2 32
2020-03-12 18:00:00 27.6 17 Oeste 28 Oeste 0 991.2 -1.4 28
2020-03-12 17:00:00 28.1 16 Oeste 24 Noroeste 0 991.2 -2.3 28
2020-03-12 16:00:00 27.5 13 Noroeste 24 Oeste 0 991.7 -3 27
2020-03-12 15:00:00 27.7 13 Oeste 21 Oeste 0 992.6 -2.8 25
2020-03-12 14:00:00 26.8 12 Oeste 19 Oeste 0 993.5 -2.2 30
2020-03-12 13:00:00 25.2 9 Oeste 17 Oeste 0 994.7 -1.1 33
2020-03-12 12:00:00 22.8 2 Norte 6 Noroeste 0 995.4 -0.2 41
2020-03-12 11:00:00 21.2 0 Calma 3 Sudeste 0 995.7 0.8 49
2020-03-12 10:00:00 16.7 0 Calma 6 Oeste 0 995.8 1.2 61
2020-03-12 09:00:00 12.5 3 Oeste 6 Oeste 0 995.6 1.1 79
2020-03-12 08:00:00 9.1 3 Noroeste 6 Oeste 0 994.9 0.2 89
2020-03-12 07:00:00 9.2 0 Calma 4 Sur 0 994.6 -0.5 94
2020-03-12 06:00:00 9.3 0 Calma -- -- 0 994.5 -1.2 94
2020-03-12 05:00:00 9.7 2 Noroeste 8 Sudeste 0 994.7 -1.5 85
2020-03-12 04:00:00 10.2 0 Calma -- -- 0 995.1 -1.4 89
2020-03-12 03:00:00 10.4 0 Calma 7 Este 0 995.7 -0.7 81
2020-03-12 02:00:00 11.2 0 Calma 5 Sudeste 0 996.2 -0.5 83
2020-03-12 01:00:00 11.7 0 Calma 7 Sudeste 0 996.5 0.4 76
2020-03-12 00:00:00 12.3 0 Calma 5 Sudeste 0 996.4 0.8 76
2020-03-11 23:00:00 13.4 0 Calma -- -- 0 996.7 1.3 73
2020-03-11 22:00:00 15.1 0 Calma -- -- 0 996.1 0.9 61
2020-03-11 21:00:00 17.6 0 Calma 4 Oeste 0 995.6 0.5 43
2020-03-11 20:00:00 20.3 3 Oeste 11 Oeste 0 995.4 0.1 33
2020-03-11 19:00:00 24.8 10 Sudoeste 17 Sudoeste 0 995.2 -0.2 28
2020-03-11 18:00:00 26.6 11 Oeste 19 Oeste 0 995.1 -0.9 26
2020-03-11 17:00:00 28.6 14 Oeste 18 Oeste 0 995.3 -1.7 22
2020-03-11 16:00:00 29.3 9 Noroeste 16 Noroeste 0 995.4 -2.6 23
2020-03-11 15:00:00 29 3 Sudoeste 12 Sudeste 0 996 -2.8 24
2020-03-11 14:00:00 28.1 5 Sudeste 12 Sudeste 0 997 -2.5 27
2020-03-11 13:00:00 26.1 2 Sudeste 12 Este 0 998 -1.8 34
2020-03-11 12:00:00 21.5 5 Este 14 Este 0 998.8 -1 41
2020-03-11 11:00:00 19.1 5 Este 15 Este 0 999.5 -0.1 47
2020-03-11 10:00:00 15.9 9 Este 14 Este 0 999.8 0.4 53
2020-03-11 09:00:00 11.6 3 Sudeste 8 Este 0 999.8 0.7 74
2020-03-11 08:00:00 7.6 0 Calma 8 Este 0 999.6 0.4 99
2020-03-11 07:00:00 6.7 0 Calma 9 Este 0 999.4 -0.2 95
2020-03-11 06:00:00 8.3 5 Sudeste 9 Sudeste 0 999.1 -0.8 94
2020-03-11 05:00:00 8.3 4 Este 8 Sudeste 0 999.2 -0.8 94
2020-03-11 04:00:00 8.3 2 Sudeste 5 Sudeste 0 999.6 -0.6 94
2020-03-11 03:00:00 8.4 5 Noroeste 8 Noroeste 0 999.9 -0.1 84
2020-03-11 02:00:00 8.6 0 Calma 6 Este 0 1000 -0.2 87
2020-03-11 01:00:00 10.1 2 Sudeste 6 Este 0 1000.2 0 82
2020-03-11 00:00:00 11.3 0 Calma 7 Sudeste 0 1000 0.2 77